createdAt,value
2017-08-29T00:02:27.871Z,10.57
2017-08-29T00:04:55.955Z,10.03
2017-08-29T00:07:24.038Z,10.13
2017-08-29T00:09:52.124Z,11.10
2017-08-29T00:12:20.207Z,11.07
2017-08-29T00:14:48.455Z,11.13
2017-08-29T00:17:16.543Z,10.90
2017-08-29T00:19:44.627Z,10.70
2017-08-29T00:22:12.727Z,9.57
2017-08-29T00:24:41.017Z,10.33
2017-08-29T00:27:09.094Z,9.77
2017-08-29T00:29:37.239Z,10.63
2017-08-29T00:32:05.340Z,10.67
2017-08-29T00:34:33.411Z,10.60
2017-08-29T00:37:01.483Z,10.00
2017-08-29T00:39:29.562Z,10.23
2017-08-29T00:41:57.654Z,10.40
2017-08-29T00:44:25.731Z,10.40
2017-08-29T00:46:53.804Z,9.00
2017-08-29T00:49:21.991Z,10.20
2017-08-29T00:51:50.082Z,11.33
2017-08-29T00:54:18.168Z,10.73
2017-08-29T00:56:46.247Z,10.47
2017-08-29T00:59:14.337Z,9.80
2017-08-29T01:01:42.420Z,9.03
2017-08-29T01:04:11.268Z,9.60
2017-08-29T01:06:39.354Z,9.37
2017-08-29T01:09:07.426Z,9.43
2017-08-29T01:11:35.531Z,10.03
2017-08-29T01:14:03.631Z,9.80
2017-08-29T01:16:31.707Z,10.20
2017-08-29T01:18:59.776Z,8.93
2017-08-29T01:21:27.855Z,8.83
2017-08-29T01:23:55.924Z,8.40
2017-08-29T01:26:24.005Z,8.37
2017-08-29T01:28:52.115Z,8.70
2017-08-29T01:31:20.206Z,8.10
2017-08-29T01:33:48.394Z,8.67
2017-08-29T01:36:16.489Z,9.27
2017-08-29T01:38:44.567Z,8.43
2017-08-29T01:41:12.663Z,9.20
2017-08-29T01:43:40.820Z,8.73
2017-08-29T01:46:08.903Z,8.40
2017-08-29T01:48:36.990Z,8.80
2017-08-29T01:51:05.498Z,8.90
2017-08-29T01:53:33.539Z,9.27
2017-08-29T01:56:01.622Z,8.43
2017-08-29T01:58:29.957Z,8.83
2017-08-29T02:00:59.285Z,8.50
2017-08-29T02:03:27.372Z,8.00
2017-08-29T02:05:55.452Z,9.20
2017-08-29T02:08:23.539Z,8.60
2017-08-29T02:10:51.603Z,8.67
2017-08-29T02:13:19.688Z,9.53
2017-08-29T02:15:48.674Z,8.43
2017-08-29T02:18:16.764Z,8.90
2017-08-29T02:20:44.864Z,9.67
2017-08-29T02:23:12.956Z,9.47
2017-08-29T02:25:41.036Z,9.00
2017-08-29T02:28:09.119Z,11.07
2017-08-29T02:30:37.199Z,12.70
2017-08-29T02:33:05.307Z,11.40
2017-08-29T02:35:33.375Z,9.87
2017-08-29T02:38:02.224Z,9.93
2017-08-29T02:40:30.305Z,10.87
2017-08-29T02:42:58.392Z,10.17
2017-08-29T02:45:26.457Z,9.57
2017-08-29T02:47:54.563Z,10.20
2017-08-29T02:50:22.748Z,12.00
2017-08-29T02:52:50.860Z,14.67
2017-08-29T02:55:18.950Z,13.80
2017-08-29T02:57:47.062Z,12.50
2017-08-29T03:00:15.144Z,13.73
2017-08-29T03:02:43.227Z,12.70
2017-08-29T03:05:11.319Z,10.10
2017-08-29T03:07:39.394Z,9.87
2017-08-29T03:10:07.473Z,10.00
2017-08-29T03:12:35.547Z,10.03
2017-08-29T03:15:03.631Z,10.00
2017-08-29T03:17:31.716Z,10.33
2017-08-29T03:19:59.806Z,8.73
2017-08-29T03:22:27.883Z,9.30
2017-08-29T03:24:55.983Z,10.80
2017-08-29T03:27:24.844Z,11.07
2017-08-29T03:29:52.928Z,8.67
2017-08-29T03:32:21.015Z,10.10
2017-08-29T03:34:49.870Z,9.23
2017-08-29T03:37:17.961Z,11.13
2017-08-29T03:39:46.048Z,10.17
2017-08-29T03:42:14.908Z,11.03
2017-08-29T03:44:42.992Z,11.80
2017-08-29T03:47:11.083Z,12.23
2017-08-29T03:49:39.927Z,12.43
2017-08-29T03:52:08.024Z,16.80
2017-08-29T03:54:36.106Z,12.63
2017-08-29T03:57:04.972Z,12.77
2017-08-29T03:59:33.056Z,12.40
2017-08-29T04:02:01.142Z,12.13
2017-08-29T04:04:29.219Z,10.80
2017-08-29T04:06:57.312Z,10.73
2017-08-29T04:09:25.399Z,11.80
2017-08-29T04:11:53.488Z,11.83
2017-08-29T04:14:21.581Z,15.53
2017-08-29T04:16:49.671Z,18.67
2017-08-29T04:19:17.763Z,27.63
2017-08-29T04:21:45.895Z,15.33
2017-08-29T04:24:13.983Z,12.90
2017-08-29T04:26:42.114Z,17.43
2017-08-29T04:29:10.215Z,21.00
2017-08-29T04:31:39.088Z,15.70
2017-08-29T04:34:07.186Z,14.67
2017-08-29T04:36:35.332Z,16.53
2017-08-29T04:39:03.434Z,19.03
2017-08-29T04:41:31.528Z,18.13
2017-08-29T04:43:59.645Z,19.40
2017-08-29T04:46:27.711Z,18.40
2017-08-29T04:48:55.884Z,18.73
2017-08-29T04:51:23.980Z,15.80
2017-08-29T04:53:52.071Z,19.10
2017-08-29T04:56:20.155Z,19.00
2017-08-29T04:58:48.233Z,20.83
2017-08-29T05:01:16.315Z,18.00
2017-08-29T05:03:44.404Z,19.90
2017-08-29T05:06:12.579Z,20.40
2017-08-29T05:08:40.665Z,20.77
2017-08-29T05:11:08.751Z,19.77
2017-08-29T05:13:36.837Z,19.90
2017-08-29T05:16:04.929Z,20.57
2017-08-29T05:18:33.012Z,19.47
2017-08-29T05:21:01.103Z,21.53
2017-08-29T05:23:29.199Z,20.40
2017-08-29T05:25:57.302Z,21.90
2017-08-29T05:28:25.390Z,19.90
2017-08-29T05:30:53.502Z,19.77
2017-08-29T05:33:21.585Z,20.60
2017-08-29T05:35:49.668Z,20.77
2017-08-29T05:38:17.763Z,19.87
2017-08-29T05:40:45.907Z,20.93
2017-08-29T05:43:13.999Z,20.57
2017-08-29T05:45:42.087Z,18.57
2017-08-29T05:48:10.379Z,18.10
2017-08-29T05:50:38.462Z,19.87
2017-08-29T05:53:06.559Z,18.50
2017-08-29T05:55:34.643Z,19.57
2017-08-29T05:58:02.727Z,19.10
2017-08-29T06:00:30.819Z,15.50
2017-08-29T06:02:58.904Z,14.20
2017-08-29T06:05:26.996Z,15.40
2017-08-29T06:07:55.081Z,17.80
2017-08-29T06:10:23.190Z,16.77
2017-08-29T06:12:51.272Z,15.07
2017-08-29T06:15:19.362Z,16.00
2017-08-29T06:17:47.468Z,14.60
2017-08-29T06:20:15.568Z,16.37
2017-08-29T06:22:43.666Z,21.17
2017-08-29T06:25:11.756Z,23.40
2017-08-29T06:27:39.843Z,26.73
2017-08-29T06:30:07.947Z,23.67
2017-08-29T06:32:36.035Z,21.13
2017-08-29T06:35:04.131Z,24.77
2017-08-29T06:37:32.989Z,29.70
2017-08-29T06:40:01.071Z,28.83
2017-08-29T06:42:29.171Z,27.13
2017-08-29T06:44:57.607Z,30.47
2017-08-29T06:47:25.706Z,31.23
2017-08-29T06:49:53.792Z,28.43
2017-08-29T06:52:21.874Z,28.57
2017-08-29T06:54:49.966Z,32.27
2017-08-29T06:57:18.065Z,30.37
2017-08-29T06:59:46.147Z,30.33
2017-08-29T07:02:14.235Z,27.57
2017-08-29T07:04:42.323Z,27.37
2017-08-29T07:07:10.412Z,25.63
2017-08-29T07:09:38.507Z,29.50
2017-08-29T07:12:06.603Z,30.10
2017-08-29T07:14:34.688Z,29.43
2017-08-29T07:17:03.535Z,29.70
2017-08-29T07:19:31.639Z,27.90
2017-08-29T07:22:00.490Z,29.07
2017-08-29T07:24:28.586Z,27.37
2017-08-29T07:26:56.703Z,29.53
2017-08-29T07:29:24.788Z,24.57
2017-08-29T07:31:52.868Z,27.80
2017-08-29T07:34:20.958Z,27.67
2017-08-29T07:36:49.050Z,29.37
2017-08-29T07:39:17.157Z,28.37
2017-08-29T07:41:45.246Z,28.33
2017-08-29T07:44:13.341Z,35.90
2017-08-29T07:46:41.428Z,34.63
2017-08-29T07:49:09.528Z,31.10
2017-08-29T07:51:37.628Z,29.63
2017-08-29T07:54:05.729Z,32.80
2017-08-29T07:56:33.911Z,33.07
2017-08-29T07:59:02.171Z,32.10
2017-08-29T08:01:30.263Z,27.53
2017-08-29T08:03:58.351Z,26.80
2017-08-29T08:06:26.445Z,31.43
2017-08-29T08:08:54.533Z,32.53
2017-08-29T08:11:22.631Z,27.50
2017-08-29T08:13:50.716Z,30.20
2017-08-29T08:16:18.807Z,26.83
2017-08-29T08:18:46.892Z,24.13
2017-08-29T08:21:14.984Z,26.93
2017-08-29T08:23:43.067Z,25.70
2017-08-29T08:26:11.154Z,28.57
2017-08-29T08:28:39.235Z,31.37
2017-08-29T08:31:07.345Z,28.50
2017-08-29T08:33:35.445Z,28.97
2017-08-29T08:36:03.525Z,30.20
2017-08-29T08:38:31.612Z,27.97
2017-08-29T08:40:59.696Z,27.80
2017-08-29T08:43:28.552Z,28.27
2017-08-29T08:45:56.623Z,25.50
2017-08-29T08:48:24.706Z,23.67
2017-08-29T08:50:52.791Z,26.23
2017-08-29T08:53:20.880Z,29.23
2017-08-29T08:55:48.976Z,25.67
2017-08-29T08:58:17.066Z,27.43
2017-08-29T09:00:45.160Z,27.87
2017-08-29T09:03:13.259Z,25.20
2017-08-29T09:05:41.349Z,25.07
2017-08-29T09:08:09.526Z,24.53
2017-08-29T09:10:37.627Z,23.27
2017-08-29T09:13:05.737Z,25.97
2017-08-29T09:15:33.823Z,25.27
2017-08-29T09:18:01.923Z,22.53
2017-08-29T09:20:30.022Z,28.43
2017-08-29T09:22:58.113Z,23.00
2017-08-29T09:25:26.209Z,24.93
2017-08-29T09:27:54.284Z,27.77
2017-08-29T09:30:22.385Z,21.20
2017-08-29T09:32:50.481Z,22.13
2017-08-29T09:35:19.340Z,21.33
2017-08-29T09:37:47.432Z,22.33
2017-08-29T09:40:15.533Z,25.53
2017-08-29T09:42:43.615Z,25.87
2017-08-29T09:45:11.758Z,23.33
2017-08-29T09:47:39.856Z,20.10
2017-08-29T09:50:08.186Z,22.20
2017-08-29T09:52:36.459Z,19.90
2017-08-29T09:55:04.588Z,22.67
2017-08-29T09:57:32.679Z,22.30
2017-08-29T10:00:01.056Z,21.37
2017-08-29T10:02:29.355Z,19.13
2017-08-29T10:04:57.435Z,19.70
2017-08-29T10:07:26.300Z,17.10
2017-08-29T10:09:54.388Z,21.43
2017-08-29T10:12:22.482Z,23.60
2017-08-29T10:14:50.727Z,21.93
2017-08-29T10:17:18.832Z,17.90
2017-08-29T10:19:46.923Z,20.07
2017-08-29T10:22:15.015Z,24.77
2017-08-29T10:24:43.105Z,20.70
2017-08-29T10:27:11.212Z,22.70
2017-08-29T10:29:39.295Z,19.43
2017-08-29T10:32:07.382Z,18.00
2017-08-29T10:34:35.463Z,15.97
2017-08-29T10:37:03.559Z,15.33
2017-08-29T10:39:31.655Z,16.13
2017-08-29T10:41:59.908Z,15.27
2017-08-29T10:44:30.095Z,16.07
2017-08-29T10:46:58.292Z,13.97
2017-08-29T10:49:26.576Z,15.30
2017-08-29T10:51:54.668Z,14.30
2017-08-29T10:54:23.538Z,14.90
2017-08-29T10:56:51.610Z,14.20
2017-08-29T10:59:19.879Z,16.50
2017-08-29T11:01:47.980Z,14.73
2017-08-29T11:04:16.085Z,14.07
2017-08-29T11:06:44.171Z,13.93
2017-08-29T11:09:12.283Z,16.30
2017-08-29T11:11:40.364Z,16.80
2017-08-29T11:14:08.453Z,15.40
2017-08-29T11:16:36.538Z,14.17
2017-08-29T11:19:04.624Z,15.20
2017-08-29T11:21:32.726Z,16.00
2017-08-29T11:24:00.803Z,14.87
2017-08-29T11:26:28.901Z,14.47
2017-08-29T11:28:56.977Z,13.70
2017-08-29T11:31:25.068Z,13.53
2017-08-29T11:33:53.156Z,11.53
2017-08-29T11:36:21.319Z,12.27
2017-08-29T11:38:49.375Z,13.20
2017-08-29T11:41:17.472Z,11.53
2017-08-29T11:43:45.558Z,11.10
2017-08-29T11:46:14.418Z,11.87
2017-08-29T11:48:42.499Z,11.10
2017-08-29T11:51:10.593Z,11.17
2017-08-29T11:53:39.439Z,15.23
2017-08-29T11:56:07.538Z,11.60
2017-08-29T11:58:35.635Z,10.63
2017-08-29T12:01:03.719Z,10.63
2017-08-29T12:03:31.812Z,10.17
2017-08-29T12:05:59.903Z,9.33
2017-08-29T12:08:27.995Z,10.00
2017-08-29T12:10:56.080Z,10.20
2017-08-29T12:13:24.939Z,10.90
2017-08-29T12:15:53.020Z,11.57
2017-08-29T12:18:21.112Z,10.47
2017-08-29T12:20:49.201Z,11.13
2017-08-29T12:23:17.279Z,13.23
2017-08-29T12:25:45.375Z,12.53
2017-08-29T12:28:13.472Z,11.53
2017-08-29T12:30:41.564Z,12.43
2017-08-29T12:33:10.415Z,11.77
2017-08-29T12:35:38.516Z,11.90
2017-08-29T12:38:07.373Z,11.20
2017-08-29T12:40:35.459Z,11.00
2017-08-29T12:43:03.553Z,11.00
2017-08-29T12:45:31.650Z,11.07
2017-08-29T12:47:59.736Z,10.60
2017-08-29T12:50:27.830Z,11.80
2017-08-29T12:52:55.930Z,11.70
2017-08-29T12:55:24.782Z,11.10
2017-08-29T12:57:52.872Z,11.20
2017-08-29T13:00:20.959Z,10.77
2017-08-29T13:02:49.128Z,11.13
2017-08-29T13:05:17.260Z,12.23
2017-08-29T13:07:45.360Z,12.10
2017-08-29T13:10:13.725Z,10.23
2017-08-29T13:12:41.823Z,10.80
2017-08-29T13:15:10.667Z,12.10
2017-08-29T13:17:38.772Z,11.03
2017-08-29T13:20:07.615Z,11.70
2017-08-29T13:22:35.709Z,11.60
2017-08-29T13:25:03.800Z,12.17
2017-08-29T13:27:31.876Z,11.60
2017-08-29T13:30:00.731Z,10.13
2017-08-29T13:32:28.819Z,8.90
2017-08-29T13:34:56.907Z,9.37
2017-08-29T13:37:25.764Z,10.50
2017-08-29T13:39:53.851Z,9.70
2017-08-29T13:42:21.934Z,10.87
2017-08-29T13:44:50.795Z,10.90
2017-08-29T13:47:18.883Z,10.17
2017-08-29T13:49:47.052Z,10.67
2017-08-29T13:52:15.914Z,10.80
2017-08-29T13:54:44.009Z,10.37
2017-08-29T13:57:12.103Z,10.30
2017-08-29T13:59:40.180Z,10.30
2017-08-29T14:02:09.040Z,11.13
2017-08-29T14:04:37.121Z,11.73
2017-08-29T14:07:05.311Z,10.33
2017-08-29T14:09:33.405Z,11.23
2017-08-29T14:12:01.495Z,10.23
2017-08-29T14:14:29.575Z,10.50
2017-08-29T14:16:57.667Z,9.87
2017-08-29T14:19:25.748Z,10.90
2017-08-29T14:21:53.819Z,10.30
2017-08-29T14:24:21.911Z,9.20
2017-08-29T14:26:50.017Z,10.30
2017-08-29T14:29:18.108Z,10.40
2017-08-29T14:31:46.190Z,10.33
2017-08-29T14:34:14.280Z,9.83
2017-08-29T14:36:42.367Z,10.20
2017-08-29T14:39:10.461Z,9.80
2017-08-29T14:41:38.533Z,10.67
2017-08-29T14:44:06.615Z,9.67
2017-08-29T14:46:46.493Z,10.07
2017-08-29T14:49:14.590Z,9.60
2017-08-29T14:51:42.655Z,9.60
2017-08-29T14:54:10.736Z,9.67
2017-08-29T14:56:38.807Z,9.70
2017-08-29T14:59:06.904Z,10.47
2017-08-29T15:01:34.987Z,10.27
2017-08-29T15:04:03.089Z,9.83
2017-08-29T15:06:31.155Z,9.63
2017-08-29T15:08:59.309Z,9.57
2017-08-29T15:11:27.397Z,9.63
2017-08-29T15:13:55.471Z,8.83
2017-08-29T15:16:23.558Z,9.40
2017-08-29T15:18:51.633Z,9.03
2017-08-29T15:21:19.720Z,9.50
2017-08-29T15:23:47.800Z,9.70
2017-08-29T15:26:15.880Z,9.00
2017-08-29T15:28:43.956Z,9.37
2017-08-29T15:31:12.036Z,9.23
2017-08-29T15:33:40.103Z,9.30
2017-08-29T15:36:08.197Z,9.47
2017-08-29T15:38:36.273Z,9.13
2017-08-29T15:41:04.352Z,9.40
2017-08-29T15:43:32.430Z,9.40
2017-08-29T15:46:00.511Z,9.80
2017-08-29T15:48:28.607Z,10.40
2017-08-29T15:50:56.692Z,9.10
2017-08-29T15:53:25.539Z,9.60
2017-08-29T15:55:53.612Z,10.60
2017-08-29T15:58:21.698Z,10.80
2017-08-29T16:00:57.624Z,11.00
2017-08-29T16:03:31.265Z,8.97
2017-08-29T16:05:59.348Z,8.67
2017-08-29T16:08:27.437Z,9.43
2017-08-29T16:10:55.517Z,8.97
2017-08-29T16:13:23.603Z,9.73
2017-08-29T16:15:51.679Z,9.80
2017-08-29T16:18:19.758Z,10.10
2017-08-29T16:20:47.840Z,9.20
2017-08-29T16:23:15.917Z,9.43
2017-08-29T16:25:43.996Z,9.43
2017-08-29T16:28:12.068Z,9.73
2017-08-29T16:30:40.155Z,10.10
2017-08-29T16:33:08.228Z,9.60
2017-08-29T16:35:36.311Z,10.00
2017-08-29T16:38:04.397Z,8.70
2017-08-29T16:40:32.486Z,10.77
2017-08-29T16:43:00.552Z,9.73
2017-08-29T16:45:28.657Z,10.33
2017-08-29T16:47:56.731Z,10.53
2017-08-29T16:50:24.798Z,10.40
2017-08-29T16:52:52.909Z,10.47
2017-08-29T16:55:20.991Z,9.53
2017-08-29T16:57:49.072Z,10.20
2017-08-29T17:00:17.147Z,10.37
2017-08-29T17:02:45.235Z,10.00
2017-08-29T17:05:14.279Z,9.80
2017-08-29T17:07:42.324Z,9.63
2017-08-29T17:10:10.395Z,9.20
2017-08-29T17:12:38.491Z,11.20
2017-08-29T17:15:06.583Z,11.13
2017-08-29T17:17:34.680Z,12.17
2017-08-29T17:20:02.759Z,10.30
2017-08-29T17:22:30.849Z,10.60
2017-08-29T17:24:58.943Z,11.13
2017-08-29T17:27:27.030Z,10.70
2017-08-29T17:29:55.111Z,10.10
2017-08-29T17:32:23.191Z,9.73
2017-08-29T17:34:51.281Z,10.90
2017-08-29T17:37:20.132Z,11.30
2017-08-29T17:39:48.219Z,10.47
2017-08-29T17:42:16.299Z,11.50
2017-08-29T17:44:44.385Z,11.20
2017-08-29T17:47:12.465Z,10.43
2017-08-29T17:49:40.547Z,9.97
2017-08-29T17:52:08.619Z,10.50
2017-08-29T17:54:36.698Z,9.80
2017-08-29T17:57:04.775Z,10.87
2017-08-29T17:59:32.865Z,10.70
2017-08-29T18:02:00.949Z,10.20
2017-08-29T18:04:29.027Z,10.70
2017-08-29T18:06:57.124Z,10.87
2017-08-29T18:09:25.196Z,10.70
2017-08-29T18:11:53.284Z,11.10
2017-08-29T18:14:21.375Z,11.23
2017-08-29T18:16:49.460Z,10.60
2017-08-29T18:19:17.545Z,11.53
2017-08-29T18:21:46.406Z,12.87
2017-08-29T18:24:14.492Z,12.33
2017-08-29T18:26:42.586Z,12.40
2017-08-29T18:29:11.437Z,10.70
2017-08-29T18:31:39.522Z,14.20
2017-08-29T18:34:07.645Z,14.37
2017-08-29T18:36:35.740Z,12.80
2017-08-29T18:39:03.880Z,11.70
2017-08-29T18:41:31.977Z,12.20
2017-08-29T18:44:00.067Z,13.63
2017-08-29T18:46:28.157Z,13.53
2017-08-29T18:48:56.259Z,28.53
2017-08-29T18:51:24.345Z,32.73
2017-08-29T18:53:52.449Z,36.30
2017-08-29T18:56:20.537Z,19.07
2017-08-29T18:58:48.636Z,14.00
2017-08-29T19:01:16.713Z,26.03
2017-08-29T19:03:44.823Z,11.40
2017-08-29T19:06:12.908Z,12.27
2017-08-29T19:08:40.991Z,17.03
2017-08-29T19:11:09.089Z,27.47
2017-08-29T19:13:37.186Z,13.90
2017-08-29T19:16:05.278Z,14.83
2017-08-29T19:18:33.377Z,29.97
2017-08-29T19:21:01.459Z,12.97
2017-08-29T19:23:29.544Z,35.67
2017-08-29T19:25:57.663Z,20.67
2017-08-29T19:28:25.747Z,10.70
2017-08-29T19:30:53.987Z,11.73
2017-08-29T19:33:22.068Z,12.63
2017-08-29T19:35:50.167Z,31.33
2017-08-29T19:38:18.267Z,15.33
2017-08-29T19:40:46.417Z,11.33
2017-08-29T19:43:14.516Z,30.03
2017-08-29T19:45:42.736Z,11.97
2017-08-29T19:48:10.915Z,10.80
2017-08-29T19:50:39.001Z,13.83
2017-08-29T19:53:07.116Z,11.80
2017-08-29T19:55:35.252Z,11.70
2017-08-29T19:58:03.434Z,11.63
2017-08-29T20:00:31.629Z,46.73
2017-08-29T20:02:59.728Z,19.97
2017-08-29T20:05:27.827Z,13.77
2017-08-29T20:07:56.076Z,13.00
2017-08-29T20:10:24.212Z,10.57
2017-08-29T20:12:52.305Z,17.33
2017-08-29T20:15:21.223Z,37.87
2017-08-29T20:17:49.366Z,40.37
2017-08-29T20:20:17.482Z,13.57
2017-08-29T20:22:45.561Z,14.60
2017-08-29T20:25:14.425Z,13.87
2017-08-29T20:27:42.567Z,29.30
2017-08-29T20:30:11.010Z,30.87
2017-08-29T20:32:39.393Z,11.17
2017-08-29T20:35:07.511Z,10.43
2017-08-29T20:37:35.600Z,22.27
2017-08-29T20:40:03.683Z,24.60
2017-08-29T20:42:31.798Z,15.87
2017-08-29T20:44:59.877Z,11.13
2017-08-29T20:47:27.972Z,11.00
2017-08-29T20:49:56.098Z,11.67
2017-08-29T20:52:24.186Z,97.53
2017-08-29T20:54:53.091Z,11.00
2017-08-29T20:57:21.271Z,12.27
2017-08-29T20:59:49.385Z,11.70
2017-08-29T21:02:18.232Z,9.95
2017-08-29T21:04:46.323Z,9.43
2017-08-29T21:07:14.411Z,10.23
2017-08-29T21:09:42.504Z,9.60
2017-08-29T21:12:10.575Z,9.20
2017-08-29T21:14:38.665Z,10.07
2017-08-29T21:17:06.741Z,9.53
2017-08-29T21:19:34.824Z,9.47
2017-08-29T21:22:02.904Z,9.97
2017-08-29T21:24:31.004Z,10.30
2017-08-29T21:26:59.090Z,9.20
2017-08-29T21:29:27.190Z,9.43
2017-08-29T21:31:55.280Z,9.43
2017-08-29T21:34:23.361Z,9.60
2017-08-29T21:36:51.423Z,9.27
2017-08-29T21:39:19.533Z,8.70
2017-08-29T21:41:47.604Z,9.00
2017-08-29T21:44:15.681Z,8.20
2017-08-29T21:46:43.773Z,8.97
2017-08-29T21:49:11.845Z,9.53
2017-08-29T21:51:39.936Z,9.33
2017-08-29T21:54:08.027Z,9.20
2017-08-29T21:56:36.102Z,9.53
2017-08-29T21:59:04.944Z,8.90
2017-08-29T22:01:33.028Z,9.37
2017-08-29T22:04:01.105Z,8.70
2017-08-29T22:06:29.180Z,9.83
2017-08-29T22:08:57.252Z,9.10
2017-08-29T22:11:25.483Z,8.93
2017-08-29T22:13:53.615Z,9.13
2017-08-29T22:16:21.762Z,9.23
2017-08-29T22:18:49.899Z,9.00
2017-08-29T22:21:18.008Z,9.37
2017-08-29T22:23:46.068Z,9.27
2017-08-29T22:26:14.144Z,9.43
2017-08-29T22:28:42.233Z,9.13
2017-08-29T22:31:10.312Z,8.93
2017-08-29T22:33:38.388Z,9.40
2017-08-29T22:36:06.459Z,8.27
2017-08-29T22:38:34.540Z,8.80
2017-08-29T22:41:02.756Z,8.60
2017-08-29T22:43:30.967Z,10.33
2017-08-29T22:45:59.826Z,10.07
2017-08-29T22:48:28.007Z,9.47
2017-08-29T22:50:56.073Z,8.63
2017-08-29T22:53:24.164Z,9.73
2017-08-29T22:55:53.012Z,10.50
2017-08-29T22:58:21.125Z,12.23
2017-08-29T23:00:49.967Z,8.70
2017-08-29T23:03:18.089Z,8.70
2017-08-29T23:05:46.323Z,10.13
2017-08-29T23:08:14.399Z,9.00
2017-08-29T23:10:42.528Z,8.87
2017-08-29T23:13:10.627Z,9.40
2017-08-29T23:15:38.825Z,9.80
2017-08-29T23:18:06.940Z,8.80
2017-08-29T23:20:35.058Z,9.83
2017-08-29T23:23:03.243Z,9.97
2017-08-29T23:25:31.512Z,9.40
2017-08-29T23:27:59.584Z,9.47
2017-08-29T23:30:27.869Z,9.60
2017-08-29T23:32:55.947Z,9.90
2017-08-29T23:35:24.015Z,9.43
2017-08-29T23:37:52.103Z,8.93
2017-08-29T23:40:20.942Z,8.60
2017-08-29T23:42:49.090Z,9.03
2017-08-29T23:45:17.242Z,9.30
2017-08-29T23:47:45.411Z,8.00
2017-08-29T23:50:13.561Z,9.60
2017-08-29T23:52:42.516Z,9.20
2017-08-29T23:55:10.601Z,8.97
2017-08-29T23:57:38.685Z,9.43
